Time,TemperatureF,DewpointF,PressureIn,WindDirection,WindDirectionDegrees,WindSpeedMPH,WindSpeedGustMPH,Humidity,HourlyPrecipIn,Conditions,Clouds,dailyrainin,SoftwareType,DateUTC
2013-01-14 10:55:00,55.2,51.7,29.98,East,79,3.0,3.0,88,0.00,,,0.00,Wunderground v.1.15,2013-01-14 15:55:00,
2013-01-14 11:05:00,55.6,51.8,29.97,NE,43,2.0,3.0,87,0.00,,,0.00,Wunderground v.1.15,2013-01-14 16:05:00,
2013-01-14 11:10:00,55.8,51.7,29.98,NNE,15,2.0,3.0,86,0.00,,,0.00,Wunderground v.1.15,2013-01-14 16:10:00,
2013-01-14 11:15:00,56.0,51.6,29.97,NE,39,3.0,3.0,85,0.00,,,0.00,Wunderground v.1.15,2013-01-14 16:15:00,
2013-01-14 11:25:00,56.5,51.7,29.97,NE,56,3.0,6.0,84,0.00,,,0.00,Wunderground v.1.15,2013-01-14 16:25:00,
2013-01-14 11:30:00,56.9,51.5,29.97,NE,49,4.0,4.0,82,0.00,,,0.00,Wunderground v.1.15,2013-01-14 16:30:00,
2013-01-14 11:35:00,57.3,51.5,29.97,NNE,32,4.0,4.0,81,0.00,,,0.00,Wunderground v.1.15,2013-01-14 16:35:00,
2013-01-14 11:40:00,57.9,51.8,29.97,NNE,13,4.0,4.0,80,0.00,,,0.00,Wunderground v.1.15,2013-01-14 16:40:00,
2013-01-14 11:50:00,58.6,51.4,29.96,NE,55,4.0,4.0,77,0.00,,,0.00,Wunderground v.1.15,2013-01-14 16:50:00,
2013-01-14 11:55:00,58.7,51.2,29.97,ENE,68,3.0,4.0,76,0.00,,,0.00,Wunderground v.1.15,2013-01-14 16:55:00,
2013-01-14 12:00:00,58.7,51.2,29.96,North,5,3.0,3.0,76,0.00,,,0.00,Wunderground v.1.15,2013-01-14 17:00:00,
2013-01-14 12:05:00,58.7,51.2,29.96,ENE,65,2.0,3.0,76,0.00,,,0.00,Wunderground v.1.15,2013-01-14 17:05:00,
2013-01-14 12:10:00,58.8,51.2,29.97,NE,35,2.0,2.0,76,0.00,,,0.00,Wunderground v.1.15,2013-01-14 17:10:00,
2013-01-14 12:20:00,59.2,51.3,29.97,NE,44,3.0,3.0,75,0.00,,,0.00,Wunderground v.1.15,2013-01-14 17:20:00,
2013-01-14 12:25:00,59.4,50.4,29.95,NNE,32,3.0,3.0,72,0.00,,,0.00,Wunderground v.1.15,2013-01-14 17:25:00,
2013-01-14 12:35:00,59.6,49.8,29.95,ENE,68,3.0,5.0,70,0.00,,,0.00,Wunderground v.1.15,2013-01-14 17:35:00,
2013-01-14 12:45:00,60.0,48.6,29.95,NE,42,4.0,5.0,66,0.00,,,0.00,Wunderground v.1.15,2013-01-14 17:45:00,
2013-01-14 12:55:00,60.5,49.1,29.95,ENE,69,3.0,4.0,66,0.00,,,0.00,Wunderground v.1.15,2013-01-14 17:55:00,
2013-01-14 13:00:00,61.0,48.3,29.96,NE,38,3.0,3.0,63,0.00,,,0.00,Wunderground v.1.15,2013-01-14 18:00:00,
2013-01-14 13:05:00,61.4,48.3,29.96,ENE,61,4.0,4.0,62,0.00,,,0.00,Wunderground v.1.15,2013-01-14 18:05:00,
2013-01-14 13:10:00,61.7,49.0,29.96,ENE,71,3.0,8.0,63,0.00,,,0.00,Wunderground v.1.15,2013-01-14 18:10:00,
2013-01-14 13:20:00,61.8,47.8,29.97,East,93,5.0,5.0,60,0.00,,,0.00,Wunderground v.1.15,2013-01-14 18:20:00,
2013-01-14 13:25:00,61.8,46.9,29.97,ENE,65,5.0,5.0,58,0.00,,,0.00,Wunderground v.1.15,2013-01-14 18:25:00,
2013-01-14 13:35:00,61.6,47.1,29.98,NE,42,5.0,6.0,59,0.00,,,0.00,Wunderground v.1.15,2013-01-14 18:35:00,
2013-01-14 14:35:00,61.2,42.4,30.01,NE,54,4.0,5.0,50,0.00,,,0.00,Wunderground v.1.15,2013-01-14 19:35:00,
2013-01-14 14:40:00,60.9,42.1,30.01,NE,42,4.0,4.0,50,0.00,,,0.00,Wunderground v.1.15,2013-01-14 19:40:00,
2013-01-14 14:50:00,60.2,42.0,30.03,ENE,60,2.0,2.0,51,0.00,,,0.00,Wunderground v.1.15,2013-01-14 19:50:00,
2013-01-14 15:00:00,59.7,41.5,30.03,ENE,76,3.0,3.0,51,0.00,,,0.00,Wunderground v.1.15,2013-01-14 20:00:00,
2013-01-14 15:10:00,59.4,40.2,30.02,NE,45,2.0,2.0,49,0.00,,,0.00,Wunderground v.1.15,2013-01-14 20:10:00,
2013-01-14 15:20:00,58.5,35.5,30.03,NE,42,4.0,7.0,42,0.00,,,0.00,Wunderground v.1.15,2013-01-14 20:20:00,
2013-01-14 15:25:00,57.9,33.7,30.04,NNE,18,5.0,7.0,40,0.00,,,0.00,Wunderground v.1.15,2013-01-14 20:25:00,
2013-01-14 15:30:00,57.3,32.5,30.05,East,91,5.0,5.0,39,0.00,,,0.00,Wunderground v.1.15,2013-01-14 20:30:00,
2013-01-14 15:35:00,56.7,32.6,30.04,ENE,69,4.0,5.0,40,0.00,,,0.00,Wunderground v.1.15,2013-01-14 20:35:00,
2013-01-14 15:45:00,55.7,33.5,30.07,ENE,67,5.0,5.0,43,0.00,,,0.00,Wunderground v.1.15,2013-01-14 20:45:00,
2013-01-14 15:55:00,55.1,34.1,30.07,ENE,77,3.0,4.0,45,0.00,,,0.00,Wunderground v.1.15,2013-01-14 20:55:00,
2013-01-14 16:05:00,54.5,34.1,30.06,ENE,77,4.0,4.0,46,0.00,,,0.00,Wunderground v.1.15,2013-01-14 21:05:00,
2013-01-14 16:10:00,54.3,34.5,30.08,ENE,74,3.0,3.0,47,0.00,,,0.00,Wunderground v.1.15,2013-01-14 21:10:00,
2013-01-14 16:20:00,53.7,35.0,30.07,ENE,60,2.0,2.0,49,0.00,,,0.00,Wunderground v.1.15,2013-01-14 21:20:00,
2013-01-14 16:25:00,53.4,34.7,30.08,NE,46,2.0,3.0,49,0.00,,,0.00,Wunderground v.1.15,2013-01-14 21:25:00,
2013-01-14 16:30:00,53.1,34.9,30.08,NE,40,2.0,4.0,50,0.00,,,0.00,Wunderground v.1.15,2013-01-14 21:30:00,
2013-01-14 16:35:00,52.7,35.1,30.08,NE,56,2.0,4.0,51,0.00,,,0.00,Wunderground v.1.15,2013-01-14 21:35:00,